Latest Weather Observations for Miles

IDQ60801

Issued at 8:02 am EST Wednesday 23 October 2019 (issued every 10 minutes, with the page automatically refreshed every 10 minutes)

About weather observations | Map of weather stations | Latest weather observations for QLD | Other Formats
Station Details ID: 042112 Name: MILES CONSTANCE STREET Lat: -26.66 Lon: 150.18 Height: 304.8 m
Data from the previous 72 hours. | See also: Recent months at Miles
Date/Time
EST
Temp
°C
App
Temp
°C
Dew
Point
°C
Rel
Hum
%
Delta-T
°C
Wind Press
QNH
hPa
Press
MSL
hPa
Rain since
9am
mm
Dir  Spd
km/h
Gust
km/h
Spd
kts
Gust
kts
23/08:00am 20.4 18.1 11.6 57 4.9 NE 15 24 8 13 1025.3 1024.1 0.0
23/07:30am 19.4 17.8 11.7 61 4.3 NNE 11 19 6 10 1025.2 1024.0 0.0
23/07:00am 17.9 16.3 11.5 66 3.5 NNE 11 17 6 9 1025.0 1023.8 0.0
23/06:30am 16.7 15.6 10.8 68 3.2 NNE 7 9 4 5 1024.9 1023.7 0.0
23/06:00am 13.8 14.0 10.6 81 1.7 CALM 0 0 0 0 1024.7 1023.5 0.0
23/05:30am 12.9 12.8 9.4 79 1.8 CALM 0 0 0 0 1024.5 1023.3 0.0
23/05:00am 13.5 13.5 9.7 78 2.0 CALM 0 6 0 3 1024.0 1022.9 0.0
23/04:30am 13.9 13.8 9.3 74 2.4 CALM 0 0 0 0 1023.8 1022.6 0.0
23/04:00am 14.6 14.5 9.6 72 2.6 CALM 0 0 0 0 1023.7 1022.5 0.0
23/03:30am 15.7 15.6 9.6 67 3.2 CALM 0 0 0 0 1023.5 1022.3 0.0
23/03:00am 16.6 15.3 10.0 65 3.5 NNE 7 13 4 7 1023.3 1022.1 0.0
23/02:30am 17.2 15.9 10.1 63 3.8 NNE 7 11 4 6 1023.2 1022.0 0.0
23/02:00am 17.8 15.7 9.9 60 4.2 NNE 11 17 6 9 1023.2 1022.0 0.0
23/01:30am 18.2 16.1 9.8 58 4.5 NNE 11 17 6 9 1023.2 1022.0 0.0
23/01:00am 18.7 16.2 9.8 56 4.8 NNE 13 20 7 11 1023.1 1021.9 0.0
23/12:30am 19.0 16.8 9.5 54 5.1 NNE 11 13 6 7 1023.0 1021.8 0.0
23/12:00am 19.7 17.9 9.3 51 5.6 NE 9 15 5 8 1023.1 1021.9 0.0
 
Date/Time
EST
Temp
°C
App
Temp
°C
Dew
Point
°C
Rel
Hum
%
Delta-T
°C
Wind Press
QNH
hPa
Press
MSL
hPa
Rain since
9am
mm
Dir  Spd
km/h
Gust
km/h
Spd
kts
Gust
kts
22/11:30pm 20.4 17.7 9.0 48 6.1 NNE 13 17 7 9 1023.0 1021.8 0.0
22/11:00pm 20.8 18.3 8.4 45 6.6 NNE 11 17 6 9 1023.1 1021.9 0.0
22/10:30pm 21.3 19.1 7.9 42 7.1 NNE 9 15 5 8 1023.0 1021.8 0.0
22/10:00pm 21.8 19.4 7.2 39 7.6 NNE 9 15 5 8 1022.8 1021.6 0.0
22/09:30pm 22.4 19.9 6.6 36 8.2 NNE 9 17 5 9 1022.5 1021.3 0.0
22/09:00pm 23.4 20.1 6.2 33 8.9 NE 13 20 7 11 1022.2 1021.0 0.0
22/08:30pm 23.2 20.6 6.1 33 8.8 ENE 9 13 5 7 1022.1 1020.9 0.0
22/08:00pm 22.2 20.1 5.6 34 8.4 E 6 9 3 5 1021.9 1020.7 0.0
22/07:30pm 22.3 20.6 6.1 35 8.3 ENE 4 6 2 3 1021.8 1020.6 0.0
22/07:00pm 24.0 22.3 5.8 31 9.4 ENE 4 6 2 3 1021.5 1020.3 0.0
22/06:30pm 26.0 23.5 4.5 25 11.0 ENE 7 11 4 6 1021.2 1020.0 0.0
22/06:00pm 27.0 24.4 4.1 23 11.6 ESE 7 13 4 7 1020.9 1019.6 0.0
22/05:30pm 27.9 25.3 4.2 22 12.2 E 7 15 4 8 1020.5 1019.3 0.0
22/05:00pm 28.3 25.3 3.9 21 12.5 SSE 9 15 5 8 1020.4 1019.2 0.0
22/04:30pm 28.2 25.3 4.5 22 12.3 ENE 9 15 5 8 1020.1 1018.9 0.0
22/04:00pm 28.3 25.3 3.9 21 12.5 ESE 9 20 5 11 1020.1 1018.9 0.0
22/03:30pm 28.1 24.9 5.0 23 12.1 S 11 19 6 10 1020.2 1019.0 0.0
22/03:00pm 28.3 25.1 5.2 23 12.1 NE 11 19 6 10 1020.4 1019.2 0.0
22/02:30pm 27.6 24.0 5.2 24 11.7 SSE 13 20 7 11 1021.0 1019.7 0.0
22/02:00pm 27.7 23.8 5.3 24 11.7 ESE 15 24 8 13 1021.4 1020.2 0.0
22/01:30pm 27.5 23.5 5.1 24 11.7 E 15 24 8 13 1021.7 1020.5 0.0
22/01:00pm 28.1 25.4 5.6 24 11.8 E 9 24 5 13 1022.1 1020.9 0.0
22/12:30pm 27.0 23.6 5.9 26 11.1 SE 13 20 7 11 1022.6 1021.4 0.0
22/12:00pm 26.5 23.0 5.5 26 10.9 ENE 13 20 7 11 1023.2 1022.0 0.0
22/11:30am 25.3 23.5 7.0 31 9.7 WSW 6 13 3 7 1023.7 1022.5 0.0
22/11:00am 25.2 22.5 7.3 32 9.5 ENE 11 20 6 11 1024.4 1023.2 0.0
22/10:30am 23.9 21.6 7.5 35 8.7 E 9 19 5 10 1024.9 1023.7 0.0
22/10:00am 23.4 20.4 7.9 37 8.2 NE 13 22 7 12 1025.3 1024.1 0.0
22/09:30am 22.2 19.3 8.0 40 7.5 NE 13 20 7 11 1025.7 1024.5 0.0
22/09:00am 22.0 19.0 9.2 44 6.9 ENE 15 22 8 12 1025.8 1024.6 0.0
22/08:30am 20.1 17.4 8.8 48 6.0 NE 13 24 7 13 1026.0 1024.8 0.0
22/08:00am 19.1 16.2 9.6 54 5.1 NNE 15 20 8 11 1025.9 1024.7 0.0
22/07:30am 17.5 15.4 9.7 60 4.2 NNE 11 17 6 9 1025.9 1024.7 0.0
22/07:00am 16.1 14.8 9.3 64 3.6 N 6 7 3 4 1025.7 1024.5 0.0
22/06:30am 13.4 13.2 8.9 74 2.3 CALM 0 0 0 0 1025.6 1024.4 0.0
22/06:00am 11.2 10.9 8.8 85 1.2 CALM 0 0 0 0 1025.4 1024.2 0.0
22/05:30am 10.8 10.4 8.2 84 1.3 CALM 0 0 0 0 1024.9 1023.7 0.0
22/05:00am 11.3 11.0 8.5 83 1.4 CALM 0 0 0 0 1024.7 1023.5 0.0
22/04:30am 12.0 11.7 8.7 80 1.7 CALM 0 0 0 0 1024.6 1023.4 0.0
22/04:00am 12.8 12.4 8.3 74 2.3 CALM 0 0 0 0 1024.0 1022.9 0.0
22/03:30am 13.6 13.1 7.8 68 2.9 CALM 0 0 0 0 1023.9 1022.7 0.0
22/03:00am 14.7 13.0 8.4 66 3.2 N 7 9 4 5 1023.7 1022.5 0.0
22/02:30am 15.7 13.7 8.7 63 3.6 NE 9 13 5 7 1023.6 1022.4 0.0
22/02:00am 16.2 13.8 8.7 61 3.9 NNE 11 17 6 9 1023.6 1022.4 0.0
22/01:30am 16.9 14.2 8.8 59 4.2 NE 13 22 7 12 1023.9 1022.7 0.0
22/01:00am 17.2 14.5 9.1 59 4.2 NNE 13 20 7 11 1023.9 1022.7 0.0
22/12:30am 17.8 15.5 8.9 56 4.7 NE 11 17 6 9 1024.0 1022.9 0.0
22/12:00am 18.4 15.3 8.9 54 5.0 NE 15 20 8 11 1024.3 1023.1 0.0
 
Date/Time
EST
Temp
°C
App
Temp
°C
Dew
Point
°C
Rel
Hum
%
Delta-T
°C
Wind Press
QNH
hPa
Press
MSL
hPa
Rain since
9am
mm
Dir  Spd
km/h
Gust
km/h
Spd
kts
Gust
kts
21/11:30pm 19.1 15.7 9.3 53 5.2 NE 17 28 9 15 1024.4 1023.2 0.0
21/11:00pm 19.7 16.7 9.3 51 5.6 NE 15 24 8 13 1024.2 1023.0 0.0
21/10:30pm 20.5 16.8 9.4 49 6.0 NE 19 26 10 14 1024.2 1023.0 0.0
21/10:00pm 21.3 17.5 9.2 46 6.5 NE 19 30 10 16 1023.8 1022.6 0.0
21/09:30pm 21.9 19.1 8.4 42 7.2 NE 13 20 7 11 1023.6 1022.4 0.0
21/09:00pm 22.6 18.6 6.8 36 8.2 NE 17 26 9 14 1023.0 1021.8 0.0
21/08:30pm 23.3 19.7 5.2 31 9.2 E 13 17 7 9 1022.6 1021.4 0.0
21/08:00pm 23.5 20.2 4.5 29 9.5 E 11 17 6 9 1022.3 1021.1 0.0
21/07:30pm 23.9 20.6 4.3 28 9.8 ESE 11 17 6 9 1022.1 1020.9 0.0
21/07:00pm 24.4 21.9 4.7 28 10.0 ESE 7 11 4 6 1021.8 1020.6 0.0
21/06:30pm 25.2 22.2 4.3 26 10.6 ESE 9 13 5 7 1021.4 1020.2 0.0
21/06:00pm 26.2 22.3 3.5 23 11.4 ESE 13 19 7 10 1021.0 1019.7 0.0
21/05:30pm 27.1 23.6 3.6 22 11.9 SE 11 17 6 9 1020.5 1019.3 0.0
21/05:00pm 27.4 23.0 2.5 20 12.3 SE 15 24 8 13 1020.2 1019.0 0.0
21/04:30pm 27.7 24.2 1.2 18 12.9 SE 9 17 5 9 1020.0 1018.8 0.0
21/04:00pm 28.2 24.2 3.1 20 12.6 ESE 13 20 7 11 1019.9 1018.7 0.0
21/03:30pm 28.1 24.6 3.7 21 12.4 E 11 20 6 11 1020.0 1018.8 0.0
21/03:00pm 26.7 23.3 3.9 23 11.5 E 11 19 6 10 1020.2 1019.0 0.0
21/02:30pm 27.5 24.1 3.9 22 12.0 E 11 20 6 11 1020.3 1019.1 0.0
21/02:00pm 27.6 23.5 4.6 23 11.8 SSE 15 24 8 13 1020.7 1019.4 0.0
21/01:30pm 28.5 25.6 4.7 22 12.4 E 9 17 5 9 1021.3 1020.1 0.0
21/01:00pm 28.1 24.9 5.0 23 12.0 SE 11 22 6 12 1021.6 1020.4 0.0
21/12:30pm 26.8 22.8 5.1 25 11.3 NE 15 24 8 13 1022.1 1020.9 0.0
21/12:00pm 26.6 23.7 6.6 28 10.6 ESE 11 20 6 11 1022.5 1021.3 0.0
21/11:30am 25.5 23.2 7.6 32 9.6 NE 9 17 5 9 1022.9 1021.7 0.0
21/11:00am 25.0 22.2 8.5 35 9.0 E 13 19 7 10 1023.3 1022.1 0.0
21/10:30am 25.1 22.4 9.0 36 8.9 E 13 20 7 11 1023.9 1022.7 0.0
21/10:00am 23.3 20.7 10.7 45 7.0 ENE 15 24 8 13 1024.3 1023.1 0.0
21/09:30am 23.1 20.4 11.8 49 6.5 NE 17 24 9 13 1024.6 1023.4 0.0
21/09:00am 21.8 19.0 11.5 52 5.8 E 17 24 9 13 1024.7 1023.5 0.0
21/08:30am 22.1 20.1 12.6 55 5.5 NE 15 22 8 12 1024.6 1023.4 0.0
21/08:00am 20.9 18.9 12.6 59 4.7 ENE 15 26 8 14 1024.4 1023.2 0.0
21/07:30am 19.5 17.4 12.5 64 4.0 NE 15 24 8 13 1024.2 1023.0 0.0
21/07:00am 16.5 15.9 7.2 54 4.7 CALM 0 0 0 0 1024.0 1022.9 0.0
21/06:30am 13.8 12.1 2.1 45 5.2 CALM 0 0 0 0 1023.7 1022.5 0.0
21/06:00am 10.6 9.0 2.2 56 3.6 CALM 0 0 0 0 1023.5 1022.3 0.0
21/05:30am 10.0 8.1 0.6 52 3.9 CALM 0 0 0 0 1023.1 1021.9 0.0
21/05:00am 10.2 8.3 0.8 52 3.9 CALM 0 0 0 0 1022.5 1021.3 0.0
21/04:30am 10.5 8.6 0.5 50 4.2 CALM 0 0 0 0 1022.3 1021.1 0.0
21/04:00am 10.7 8.7 0.2 48 4.3 CALM 0 0 0 0 1022.2 1021.0 0.0
21/03:30am 11.0 9.2 1.5 52 4.1 CALM 0 0 0 0 1021.9 1020.7 0.0
21/03:00am 11.3 9.3 -0.2 45 4.7 CALM 0 0 0 0 1021.7 1020.5 0.0
21/02:30am 11.7 9.6 -0.8 42 5.1 CALM 0 0 0 0 1021.7 1020.5 0.0
21/02:00am 12.3 10.5 1.0 46 4.8 CALM 0 0 0 0 1021.7 1020.5 0.0
21/01:30am 13.0 11.2 1.4 45 5.0 CALM 0 0 0 0 1021.7 1020.5 0.0
21/01:00am 14.6 11.0 -3.7 28 7.2 SE 6 13 3 7 1021.9 1020.7 0.0
21/12:30am 15.3 11.5 -3.6 27 7.5 SSW 7 9 4 5 1022.1 1020.9 0.0
21/12:00am 17.1 12.7 -6.0 20 8.9 SE 9 17 5 9 1022.8 1021.6 0.0
 
Date/Time
EST
Temp
°C
App
Temp
°C
Dew
Point
°C
Rel
Hum
%
Delta-T
°C
Wind Press
QNH
hPa
Press
MSL
hPa
Rain since
9am
mm
Dir  Spd
km/h
Gust
km/h
Spd
kts
Gust
kts
20/11:30pm 16.4 12.3 -6.6 20 8.7 SE 7 7 4 4 1022.2 1021.0 0.0
20/11:00pm 16.7 12.6 -6.3 20 8.7 SSW 7 9 4 5 1021.9 1020.7 0.0
20/10:30pm 16.4 12.5 -4.8 23 8.3 SSW 7 9 4 5 1021.7 1020.5 0.0
20/10:00pm 16.9 13.0 -4.3 23 8.4 SSW 7 7 4 4 1021.7 1020.5 0.0
20/09:30pm 17.9 14.1 -5.3 20 9.2 SSW 6 7 3 4 1021.5 1020.3 0.0
20/09:00pm 19.7 15.6 -6.8 16 10.3 S 7 9 4 5 1021.4 1020.2 0.0
20/08:30pm 20.4 16.3 -6.2 16 10.6 SSW 7 11 4 6 1021.1 1019.8 0.0
20/08:00pm 21.8 17.7 -6.8 14 11.4 SSW 7 11 4 6 1020.8 1019.5 0.0
20/07:30pm 22.6 18.2 -6.2 14 11.7 SSW 9 15 5 8 1020.1 1018.9 0.0
20/07:00pm 23.8 19.0 -6.2 13 12.3 SSW 11 17 6 9 1019.6 1018.4 0.0
20/06:30pm 24.6 19.5 -5.6 13 12.7 SSW 13 22 7 12 1019.0 1017.8 0.0
20/06:00pm 25.9 20.4 -5.6 12 13.3 S 15 24 8 13 1018.5 1017.3 0.0
20/05:30pm 27.3 22.1 -5.7 11 14.2 SSW 13 24 7 13 1017.9 1016.6 0.0
20/05:00pm 27.9 22.0 -5.2 11 14.4 S 17 28 9 15 1017.4 1016.1 0.0
20/04:30pm 28.4 23.3 -4.9 11 14.6 SW 13 24 7 13 1017.1 1015.9 0.0
20/04:00pm 28.8 23.5 -3.4 12 14.5 WSW 15 28 8 15 1016.9 1015.7 0.0
20/03:30pm 28.8 22.6 -4.6 11 14.8 SSW 19 28 10 15 1016.9 1015.7 0.0
20/03:00pm 29.1 23.8 -3.2 12 14.7 SSW 15 30 8 16 1016.8 1015.6 0.0
20/02:30pm 28.7 23.3 -4.6 11 14.7 SSW 15 26 8 14 1017.1 1015.9 0.0
20/02:00pm 28.7 23.8 -3.5 12 14.5 SW 13 20 7 11 1017.3 1016.0 0.0
20/01:30pm 29.2 24.0 -3.1 12 14.7 SSW 15 24 8 13 1017.5 1016.2 0.0
20/01:00pm 28.4 22.6 -4.9 11 14.6 SSW 17 30 9 16 1017.9 1016.6 0.0
20/12:30pm 28.1 22.0 -3.9 12 14.3 SW 19 37 10 20 1018.3 1017.1 0.0
20/12:00pm 28.2 22.5 -3.9 12 14.3 SW 17 28 9 15 1018.5 1017.3 0.0
20/11:30am 27.9 23.0 -3.0 13 14.0 SW 13 26 7 14 1018.9 1017.7 0.0
20/11:00am 27.3 22.5 -2.5 14 13.5 S 13 19 7 10 1019.4 1018.2 0.0
20/10:30am 26.9 22.3 -1.0 16 13.0 S 13 26 7 14 1019.6 1018.4 0.0
20/10:00am 26.1 20.8 -0.8 17 12.5 SSW 17 28 9 15 1020.0 1018.8 0.0
20/09:30am 24.5 19.9 -1.3 18 11.7 S 13 22 7 12 1020.1 1018.9 0.0
20/09:00am 23.3 18.6 -1.6 19 11.1 SSW 13 20 7 11 1020.2 1019.0 0.0
20/08:30am 22.5 18.0 -0.3 22 10.4 SSE 13 20 7 11 1020.2 1019.0 0.0

Other formats

Comma delimited format used in spreadsheet applications
http://www.bom.gov.au/fwo/IDQ60801/IDQ60801.95529.axf

JavaScript Object Notation format (JSON) in row-major order
http://www.bom.gov.au/fwo/IDQ60801/IDQ60801.95529.json

Data quality

Most of these data are generated automatically and are frequently updated. Quality checks on data are not normally performed. It is possible for incorrect values to appear. Refer to information at About Latest Weather Observations and please check the disclaimer before using these data.